createdAt,value
2018-02-13T00:01:55.035Z,93.60
2018-02-13T00:04:21.440Z,93.90
2018-02-13T00:06:47.847Z,93.90
2018-02-13T00:09:14.243Z,93.90
2018-02-13T00:11:40.651Z,93.80
2018-02-13T00:14:07.069Z,93.70
2018-02-13T00:16:33.471Z,94.10
2018-02-13T00:18:59.869Z,94.20
2018-02-13T00:21:26.647Z,94.40
2018-02-13T00:23:53.097Z,94.50
2018-02-13T00:26:19.532Z,94.40
2018-02-13T00:28:45.995Z,94.30
2018-02-13T00:31:12.422Z,94.40
2018-02-13T00:33:38.820Z,94.00
2018-02-13T00:36:05.294Z,94.20
2018-02-13T00:38:31.723Z,94.70
2018-02-13T00:40:58.117Z,94.80
2018-02-13T00:43:24.915Z,94.80
2018-02-13T00:45:52.086Z,94.40
2018-02-13T00:48:18.483Z,94.40
2018-02-13T00:50:45.008Z,94.60
2018-02-13T00:53:11.395Z,93.90
2018-02-13T00:55:38.639Z,93.50
2018-02-13T00:58:05.121Z,93.50
2018-02-13T01:00:31.594Z,94.10
2018-02-13T01:02:57.978Z,94.10
2018-02-13T01:05:24.593Z,93.50
2018-02-13T01:07:50.997Z,93.50
2018-02-13T01:10:18.133Z,94.00
2018-02-13T01:12:45.598Z,93.60
2018-02-13T01:15:12.004Z,93.60
2018-02-13T01:17:38.419Z,93.50
2018-02-13T01:20:04.858Z,93.50
2018-02-13T01:22:31.268Z,93.70
2018-02-13T01:24:57.693Z,93.50
2018-02-13T01:27:24.769Z,93.50
2018-02-13T01:29:51.171Z,93.50
2018-02-13T01:32:17.577Z,93.40
2018-02-13T01:34:44.848Z,93.50
2018-02-13T01:37:11.240Z,93.50
2018-02-13T01:39:37.647Z,93.30
2018-02-13T01:42:04.080Z,93.10
2018-02-13T01:44:30.493Z,93.10
2018-02-13T01:46:56.902Z,93.10
2018-02-13T01:49:24.123Z,93.10
2018-02-13T01:51:50.589Z,93.10
2018-02-13T01:54:17.043Z,93.20
2018-02-13T01:56:43.455Z,93.20
2018-02-13T01:59:09.861Z,93.10
2018-02-13T02:01:36.276Z,93.00
2018-02-13T02:04:02.916Z,93.40
2018-02-13T02:06:29.389Z,93.00
2018-02-13T02:08:55.780Z,92.90
2018-02-13T02:11:22.528Z,92.90
2018-02-13T02:13:48.952Z,92.80
2018-02-13T02:16:15.387Z,92.70
2018-02-13T02:18:41.948Z,92.80
2018-02-13T02:21:08.333Z,92.90
2018-02-13T02:23:34.731Z,92.50
2018-02-13T02:26:01.336Z,92.60
2018-02-13T02:28:28.600Z,92.40
2018-02-13T02:30:55.036Z,92.30
2018-02-13T02:33:21.832Z,92.40
2018-02-13T02:35:48.223Z,92.40
2018-02-13T02:38:14.614Z,92.20
2018-02-13T02:40:41.133Z,92.60
2018-02-13T02:43:07.532Z,92.30
2018-02-13T02:45:34.649Z,92.30
2018-02-13T02:48:01.090Z,92.20
2018-02-13T02:50:27.508Z,91.90
2018-02-13T02:52:53.890Z,91.80
2018-02-13T02:55:20.410Z,91.90
2018-02-13T02:57:46.811Z,91.80
2018-02-13T03:00:13.209Z,91.70
2018-02-13T03:02:39.628Z,91.70
2018-02-13T03:05:06.032Z,91.70
2018-02-13T03:07:32.508Z,91.70
2018-02-13T03:09:58.955Z,91.70
2018-02-13T03:12:25.364Z,91.60
2018-02-13T03:14:51.912Z,91.50
2018-02-13T03:17:18.358Z,91.60
2018-02-13T03:19:44.892Z,91.70
2018-02-13T03:22:11.388Z,91.80
2018-02-13T03:24:37.821Z,91.70
2018-02-13T03:27:04.240Z,91.70
2018-02-13T03:29:31.396Z,91.70
2018-02-13T03:31:57.968Z,91.60
2018-02-13T03:34:24.381Z,91.60
2018-02-13T03:36:50.840Z,91.70
2018-02-13T03:39:17.434Z,91.70
2018-02-13T03:41:43.853Z,91.80
2018-02-13T03:44:10.267Z,91.70
2018-02-13T03:46:36.807Z,91.70
2018-02-13T03:49:03.210Z,91.70
2018-02-13T03:51:29.637Z,91.60
2018-02-13T03:53:56.100Z,91.60
2018-02-13T03:56:22.607Z,91.60
2018-02-13T03:58:49.017Z,91.50
2018-02-13T04:01:15.417Z,91.70
2018-02-13T04:03:41.902Z,91.50
2018-02-13T04:06:09.053Z,91.50
2018-02-13T04:08:36.288Z,91.40
2018-02-13T04:11:02.721Z,91.30
2018-02-13T04:13:29.143Z,91.30
2018-02-13T04:15:55.669Z,91.40
2018-02-13T04:18:22.205Z,91.40
2018-02-13T04:20:48.709Z,91.40
2018-02-13T04:23:15.281Z,91.40
2018-02-13T04:25:42.498Z,91.30
2018-02-13T04:28:08.951Z,91.30
2018-02-13T04:30:35.576Z,91.30
2018-02-13T04:33:01.986Z,91.10
2018-02-13T04:35:28.428Z,91.30
2018-02-13T04:37:55.223Z,91.20
2018-02-13T04:40:21.639Z,91.10
2018-02-13T04:42:48.193Z,91.20
2018-02-13T04:45:14.641Z,91.40
2018-02-13T04:47:41.791Z,91.50
2018-02-13T04:50:08.986Z,91.50
2018-02-13T04:52:35.516Z,91.50
2018-02-13T04:55:02.061Z,91.50
2018-02-13T04:57:28.505Z,91.40
2018-02-13T04:59:55.009Z,91.10
2018-02-13T05:02:21.420Z,91.20
2018-02-13T05:04:47.851Z,91.30
2018-02-13T05:07:15.372Z,91.20
2018-02-13T05:09:42.531Z,91.30
2018-02-13T05:12:08.974Z,91.30
2018-02-13T05:14:35.445Z,91.40
2018-02-13T05:17:01.903Z,91.20
2018-02-13T05:19:28.303Z,91.20
2018-02-13T05:21:54.785Z,91.10
2018-02-13T05:24:21.230Z,91.10
2018-02-13T05:26:47.675Z,90.90
2018-02-13T05:29:14.208Z,90.90
2018-02-13T05:31:40.693Z,90.80
2018-02-13T05:34:07.155Z,90.90
2018-02-13T05:36:33.613Z,90.70
2018-02-13T05:39:00.034Z,90.70
2018-02-13T05:41:26.527Z,90.70
2018-02-13T05:43:53.029Z,90.80
2018-02-13T05:46:19.507Z,90.70
2018-02-13T05:48:45.889Z,90.80
2018-02-13T05:51:12.345Z,90.70
2018-02-13T05:53:39.573Z,90.70
2018-02-13T05:56:06.113Z,90.60
2018-02-13T05:58:32.719Z,90.50
2018-02-13T06:00:59.875Z,90.80
2018-02-13T06:03:26.317Z,90.70
2018-02-13T06:05:53.539Z,90.60
2018-02-13T06:08:20.800Z,90.60
2018-02-13T06:10:47.329Z,90.50
2018-02-13T06:13:13.949Z,90.60
2018-02-13T06:15:40.444Z,90.70
2018-02-13T06:18:07.034Z,91.10
2018-02-13T06:20:33.522Z,91.20
2018-02-13T06:23:00.104Z,91.20
2018-02-13T06:25:26.612Z,91.10
2018-02-13T06:27:53.379Z,91.30
2018-02-13T06:30:19.956Z,91.20
2018-02-13T06:32:46.405Z,91.50
2018-02-13T06:35:13.312Z,91.50
2018-02-13T06:37:39.767Z,91.50
2018-02-13T06:40:06.162Z,91.60
2018-02-13T06:42:32.583Z,91.40
2018-02-13T06:44:59.025Z,91.30
2018-02-13T06:47:25.436Z,90.80
2018-02-13T06:49:51.880Z,90.70
2018-02-13T06:52:18.394Z,90.80
2018-02-13T06:54:44.904Z,90.70
2018-02-13T06:57:11.356Z,90.30
2018-02-13T06:59:37.828Z,90.30
2018-02-13T07:02:04.994Z,90.40
2018-02-13T07:04:31.472Z,90.40
2018-02-13T07:06:57.980Z,90.10
2018-02-13T07:09:24.856Z,90.10
2018-02-13T07:11:51.411Z,89.70
2018-02-13T07:14:17.839Z,89.30
2018-02-13T07:16:44.316Z,89.30
2018-02-13T07:19:11.326Z,89.80
2018-02-13T07:21:37.712Z,89.40
2018-02-13T07:24:04.153Z,89.50
2018-02-13T07:26:31.522Z,88.30
2018-02-13T07:28:58.134Z,88.30
2018-02-13T07:31:24.744Z,88.30
2018-02-13T07:33:51.374Z,87.70
2018-02-13T07:36:18.588Z,87.70
2018-02-13T07:38:45.885Z,88.70
2018-02-13T07:41:12.333Z,88.60
2018-02-13T07:43:38.778Z,89.20
2018-02-13T07:46:05.299Z,88.70
2018-02-13T07:48:31.740Z,89.80
2018-02-13T07:50:58.236Z,89.40
2018-02-13T07:53:24.626Z,89.40
2018-02-13T07:55:51.083Z,90.00
2018-02-13T07:58:17.577Z,90.30
2018-02-13T08:00:43.992Z,90.20
2018-02-13T08:03:10.563Z,90.20
2018-02-13T08:05:37.011Z,90.10
2018-02-13T08:08:03.408Z,90.30
2018-02-13T08:10:29.861Z,90.40
2018-02-13T08:12:56.740Z,90.40
2018-02-13T08:15:23.244Z,90.50
2018-02-13T08:17:49.848Z,90.70
2018-02-13T08:20:16.357Z,90.90
2018-02-13T08:22:42.734Z,90.80
2018-02-13T08:25:09.209Z,91.20
2018-02-13T08:27:35.861Z,91.20
2018-02-13T08:30:02.329Z,91.10
2018-02-13T08:32:29.204Z,91.10
2018-02-13T08:34:55.706Z,91.30
2018-02-13T08:37:22.171Z,91.10
2018-02-13T08:39:48.745Z,91.00
2018-02-13T08:42:15.142Z,91.20
2018-02-13T08:44:41.552Z,91.20
2018-02-13T08:47:07.988Z,91.10
2018-02-13T08:49:34.464Z,91.20
2018-02-13T08:52:01.005Z,91.20
2018-02-13T08:54:27.594Z,91.20
2018-02-13T08:56:53.989Z,91.50
2018-02-13T08:59:20.425Z,91.10
2018-02-13T09:01:46.889Z,90.70
2018-02-13T09:04:13.373Z,90.60
2018-02-13T09:06:39.864Z,91.00
2018-02-13T09:09:06.281Z,90.40
2018-02-13T09:11:32.712Z,90.60
2018-02-13T09:14:00.415Z,90.40
2018-02-13T09:16:26.970Z,90.40
2018-02-13T09:18:53.587Z,90.30
2018-02-13T09:21:20.059Z,90.10
2018-02-13T09:23:46.582Z,90.40
2018-02-13T09:26:13.028Z,90.30
2018-02-13T09:28:40.252Z,90.60
2018-02-13T09:31:06.665Z,90.20
2018-02-13T09:33:33.165Z,90.00
2018-02-13T09:35:59.632Z,90.00
2018-02-13T09:38:26.050Z,89.70
2018-02-13T09:40:52.499Z,89.40
2018-02-13T09:43:18.954Z,89.60
2018-02-13T09:45:45.409Z,89.40
2018-02-13T09:48:11.899Z,89.70
2018-02-13T09:50:38.776Z,89.60
2018-02-13T09:53:05.279Z,89.20
2018-02-13T09:55:31.822Z,89.40
2018-02-13T09:57:59.070Z,89.70
2018-02-13T10:00:25.534Z,89.60
2018-02-13T10:02:52.766Z,89.60
2018-02-13T10:05:19.231Z,89.50
2018-02-13T10:07:45.771Z,88.60
2018-02-13T10:10:12.202Z,89.40
2018-02-13T10:12:45.968Z,89.20
2018-02-13T10:15:12.515Z,88.70
2018-02-13T10:17:39.018Z,87.50
2018-02-13T10:20:05.684Z,87.60
2018-02-13T10:22:32.136Z,87.30
2018-02-13T10:24:58.630Z,87.30
2018-02-13T10:27:25.206Z,87.30
2018-02-13T10:29:51.657Z,87.20
2018-02-13T10:32:18.087Z,87.30
2018-02-13T10:34:44.538Z,88.20
2018-02-13T10:37:10.977Z,87.80
2018-02-13T10:39:37.470Z,88.70
2018-02-13T10:42:03.883Z,88.90
2018-02-13T10:44:30.374Z,89.20
2018-02-13T10:46:56.857Z,89.70
2018-02-13T10:49:23.331Z,90.10
2018-02-13T10:51:49.738Z,90.30
2018-02-13T10:54:17.239Z,90.30
2018-02-13T10:56:43.812Z,90.00
2018-02-13T10:59:10.352Z,90.10
2018-02-13T11:01:37.779Z,90.10
2018-02-13T11:04:05.013Z,90.80
2018-02-13T11:06:31.510Z,90.70
2018-02-13T11:08:57.967Z,90.50
2018-02-13T11:11:24.384Z,90.50
2018-02-13T11:13:50.927Z,90.40
2018-02-13T11:16:17.419Z,90.50
2018-02-13T11:18:45.669Z,90.60
2018-02-13T11:21:12.205Z,90.60
2018-02-13T11:23:38.738Z,90.50
2018-02-13T11:26:05.172Z,90.40
2018-02-13T11:28:31.648Z,90.00
2018-02-13T11:30:58.121Z,90.20
2018-02-13T11:33:24.632Z,90.00
2018-02-13T11:35:51.121Z,89.30
2018-02-13T11:38:18.825Z,88.90
2018-02-13T11:40:45.469Z,88.80
2018-02-13T11:43:13.101Z,89.00
2018-02-13T11:45:40.353Z,88.00
2018-02-13T11:48:07.484Z,88.60
2018-02-13T11:50:33.973Z,88.50
2018-02-13T11:53:00.417Z,88.20
2018-02-13T11:55:26.861Z,88.80
2018-02-13T11:57:53.332Z,89.10
2018-02-13T12:00:20.528Z,89.10
2018-02-13T12:02:46.969Z,89.00
2018-02-13T12:05:13.457Z,89.60
2018-02-13T12:07:39.899Z,90.00
2018-02-13T12:10:07.057Z,90.30
2018-02-13T12:12:33.624Z,90.20
2018-02-13T12:15:00.093Z,90.40
2018-02-13T12:17:26.452Z,90.90
2018-02-13T12:19:52.972Z,90.90
2018-02-13T12:22:19.488Z,90.80
2018-02-13T12:24:46.008Z,91.20
2018-02-13T12:27:12.510Z,91.50
2018-02-13T12:29:38.919Z,91.70
2018-02-13T12:32:05.356Z,91.40
2018-02-13T12:34:31.833Z,91.60
2018-02-13T12:36:58.393Z,91.90
2018-02-13T12:39:24.890Z,92.30
2018-02-13T12:41:51.398Z,92.40
2018-02-13T12:44:17.845Z,92.20
2018-02-13T12:46:45.067Z,91.50
2018-02-13T12:49:12.637Z,91.40
2018-02-13T12:51:39.115Z,91.70
2018-02-13T12:54:06.469Z,90.80
2018-02-13T12:56:33.029Z,90.20
2018-02-13T12:58:59.486Z,89.30
2018-02-13T13:01:26.846Z,88.70
2018-02-13T13:03:56.218Z,87.60
2018-02-13T13:06:22.674Z,88.10
2018-02-13T13:08:49.141Z,88.30
2018-02-13T13:11:15.615Z,88.00
2018-02-13T13:13:42.075Z,88.90
2018-02-13T13:16:09.410Z,89.10
2018-02-13T13:18:35.972Z,89.10
2018-02-13T13:21:03.998Z,90.30
2018-02-13T13:23:30.658Z,90.20
2018-02-13T13:25:57.398Z,90.40
2018-02-13T13:28:23.849Z,90.70
2018-02-13T13:30:50.413Z,91.10
2018-02-13T13:33:17.770Z,91.60
2018-02-13T13:35:44.390Z,91.50
2018-02-13T13:38:11.617Z,92.30
2018-02-13T13:40:38.340Z,92.00
2018-02-13T13:43:04.878Z,92.10
2018-02-13T13:45:31.311Z,92.30
2018-02-13T13:47:57.736Z,92.50
2018-02-13T13:50:24.151Z,92.70
2018-02-13T13:52:50.579Z,91.80
2018-02-13T13:55:17.785Z,92.00
2018-02-13T13:57:45.164Z,92.20
2018-02-13T14:00:11.606Z,92.20
2018-02-13T14:02:38.058Z,92.30
2018-02-13T14:05:04.492Z,92.30
2018-02-13T14:07:30.947Z,91.90
2018-02-13T14:09:57.438Z,92.20
2018-02-13T14:12:23.832Z,92.40
2018-02-13T14:14:50.225Z,92.40
2018-02-13T14:17:17.643Z,92.50
2018-02-13T14:19:44.706Z,92.80
2018-02-13T14:22:11.961Z,92.90
2018-02-13T14:24:38.860Z,92.80
2018-02-13T14:27:05.405Z,93.00
2018-02-13T14:29:32.087Z,93.20
2018-02-13T14:31:58.629Z,93.40
2018-02-13T14:34:25.064Z,93.30
2018-02-13T14:36:52.324Z,93.50
2018-02-13T14:39:19.616Z,93.40
2018-02-13T14:41:46.065Z,93.30
2018-02-13T14:44:13.323Z,93.70
2018-02-13T14:46:40.141Z,93.70
2018-02-13T14:49:06.551Z,93.50
2018-02-13T14:51:33.039Z,93.60
2018-02-13T14:53:59.623Z,94.00
2018-02-13T14:56:26.119Z,93.80
2018-02-13T14:58:53.319Z,94.00
2018-02-13T15:01:19.839Z,94.00
2018-02-13T15:03:47.079Z,94.20
2018-02-13T15:06:14.280Z,94.10
2018-02-13T15:08:40.754Z,94.10
2018-02-13T15:11:07.926Z,94.10
2018-02-13T15:13:35.182Z,94.10
2018-02-13T15:16:01.614Z,94.10
2018-02-13T15:18:32.126Z,94.10
2018-02-13T15:20:58.658Z,94.10
2018-02-13T15:23:25.122Z,94.10
2018-02-13T15:25:51.637Z,93.40
2018-02-13T15:28:18.822Z,93.80
2018-02-13T15:30:45.450Z,93.80
2018-02-13T15:33:11.969Z,93.70
2018-02-13T15:35:38.493Z,93.90
2018-02-13T15:38:05.692Z,94.00
2018-02-13T15:40:32.100Z,94.00
2018-02-13T15:42:58.568Z,94.10
2018-02-13T15:45:25.747Z,94.00
2018-02-13T15:47:52.368Z,93.60
2018-02-13T15:50:19.296Z,93.80
2018-02-13T15:52:45.919Z,94.00
2018-02-13T15:55:12.336Z,93.20
2018-02-13T15:57:38.911Z,92.80
2018-02-13T16:00:05.484Z,92.90
2018-02-13T16:02:32.050Z,93.10
2018-02-13T16:04:58.579Z,93.20
2018-02-13T16:07:25.001Z,93.20
2018-02-13T16:09:52.212Z,93.40
2018-02-13T16:12:18.763Z,93.70
2018-02-13T16:14:45.594Z,93.40
2018-02-13T16:17:12.729Z,93.40
2018-02-13T16:19:39.670Z,93.40
2018-02-13T16:22:06.060Z,92.90
2018-02-13T16:24:32.533Z,92.80
2018-02-13T16:26:59.041Z,93.20
2018-02-13T16:29:26.292Z,93.20
2018-02-13T16:31:52.817Z,93.10
2018-02-13T16:34:20.043Z,93.00
2018-02-13T16:36:46.555Z,92.90
2018-02-13T16:39:13.032Z,93.00
2018-02-13T16:41:39.534Z,93.00
2018-02-13T16:44:06.017Z,92.80
2018-02-13T16:46:33.261Z,92.70
2018-02-13T16:49:00.545Z,92.80
2018-02-13T16:51:26.979Z,92.70
2018-02-13T16:53:53.396Z,92.80
2018-02-13T16:56:20.618Z,92.60
2018-02-13T16:58:47.064Z,92.50
2018-02-13T17:01:13.582Z,92.30
2018-02-13T17:03:40.073Z,92.40
2018-02-13T17:06:06.571Z,92.00
2018-02-13T17:08:33.808Z,91.90
2018-02-13T17:11:00.218Z,91.90
2018-02-13T17:13:26.780Z,91.70
2018-02-13T17:15:53.227Z,91.50
2018-02-13T17:18:19.628Z,91.30
2018-02-13T17:20:46.089Z,91.00
2018-02-13T17:23:13.979Z,90.90
2018-02-13T17:25:40.375Z,90.90
2018-02-13T17:28:07.096Z,91.00
2018-02-13T17:30:33.474Z,91.10
2018-02-13T17:33:00.643Z,90.90
2018-02-13T17:35:27.118Z,90.90
2018-02-13T17:37:53.653Z,91.10
2018-02-13T17:40:20.073Z,90.90
2018-02-13T17:42:46.628Z,90.90
2018-02-13T18:22:06.863Z,90.50
2018-02-13T18:24:33.726Z,90.40
2018-02-13T18:27:01.015Z,90.30
2018-02-13T18:29:28.952Z,90.30
2018-02-13T18:31:56.221Z,90.20
2018-02-13T18:34:22.685Z,90.20
2018-02-13T18:36:49.110Z,90.10
2018-02-13T18:39:15.873Z,90.20
2018-02-13T18:41:42.357Z,90.30
2018-02-13T18:44:09.391Z,90.40
2018-02-13T18:46:35.867Z,90.60
2018-02-13T18:49:02.317Z,90.20
2018-02-13T18:51:29.099Z,90.40
2018-02-13T18:53:55.641Z,90.20
2018-02-13T18:56:22.304Z,90.40
2018-02-13T18:58:48.877Z,90.40
2018-02-13T19:01:15.497Z,90.50
2018-02-13T19:03:42.004Z,90.80
2018-02-13T19:06:08.512Z,90.50
2018-02-13T19:08:34.997Z,90.20
2018-02-13T19:11:01.409Z,90.30
2018-02-13T19:13:27.996Z,90.50
2018-02-13T19:15:54.473Z,90.70
2018-02-13T19:18:20.899Z,91.00
2018-02-13T19:20:47.729Z,91.00
2018-02-13T19:23:14.349Z,90.90
2018-02-13T19:25:40.798Z,91.40
2018-02-13T19:28:07.636Z,90.90
2018-02-13T19:30:34.093Z,90.50
2018-02-13T19:33:00.524Z,90.70
2018-02-13T19:35:28.335Z,90.70
2018-02-13T19:37:54.758Z,90.70
2018-02-13T19:40:21.295Z,90.60
2018-02-13T19:42:47.757Z,90.90
2018-02-13T19:45:14.221Z,90.80
2018-02-13T19:47:40.772Z,91.00
2018-02-13T19:50:07.785Z,91.10
2018-02-13T19:52:34.181Z,91.50
2018-02-13T19:55:00.614Z,91.30
2018-02-13T19:57:27.986Z,91.10
2018-02-13T19:59:54.390Z,91.10
2018-02-13T20:02:21.621Z,91.20
2018-02-13T20:04:48.313Z,91.20
2018-02-13T20:07:14.847Z,90.90
2018-02-13T20:09:41.462Z,90.70
2018-02-13T20:12:07.949Z,90.40
2018-02-13T20:14:35.092Z,90.70
2018-02-13T20:17:01.703Z,90.30
2018-02-13T20:19:28.152Z,90.00
2018-02-13T20:21:54.571Z,90.10
2018-02-13T20:24:21.027Z,90.10
2018-02-13T20:26:47.653Z,90.00
2018-02-13T20:29:14.134Z,90.10
2018-02-13T20:31:40.580Z,90.30
2018-02-13T20:34:07.928Z,90.50
2018-02-13T20:36:34.326Z,90.50
2018-02-13T20:39:00.810Z,90.60
2018-02-13T20:41:27.443Z,90.60
2018-02-13T20:43:53.929Z,90.60
2018-02-13T20:46:20.363Z,90.60
2018-02-13T20:48:46.921Z,90.70
2018-02-13T20:51:14.318Z,90.80
2018-02-13T20:53:40.777Z,90.80
2018-02-13T20:56:07.561Z,90.80
2018-02-13T20:58:34.130Z,90.90
2018-02-13T21:01:00.581Z,91.00
2018-02-13T21:03:27.041Z,91.20
2018-02-13T21:05:53.493Z,91.20
2018-02-13T21:08:19.889Z,91.20
2018-02-13T21:10:46.347Z,91.50
2018-02-13T21:13:12.839Z,91.40
2018-02-13T21:15:39.402Z,91.70
2018-02-13T21:18:05.884Z,91.80
2018-02-13T21:20:32.354Z,91.80
2018-02-13T21:22:58.860Z,91.90
2018-02-13T21:25:26.071Z,92.10
2018-02-13T21:27:53.288Z,91.60
2018-02-13T21:30:19.809Z,91.60
2018-02-13T21:32:47.421Z,91.70
2018-02-13T21:35:13.987Z,91.70
2018-02-13T21:37:40.405Z,91.60
2018-02-13T21:40:07.127Z,91.60
2018-02-13T21:42:33.625Z,91.60
2018-02-13T21:45:00.068Z,91.70
2018-02-13T21:47:26.924Z,91.70
2018-02-13T21:49:54.248Z,91.80
2018-02-13T21:52:20.733Z,91.80
2018-02-13T21:54:47.251Z,92.00
2018-02-13T21:57:13.727Z,92.00
2018-02-13T21:59:40.164Z,91.90
2018-02-13T22:02:06.632Z,92.00
2018-02-13T22:04:33.323Z,92.00
2018-02-13T22:07:00.524Z,92.10
2018-02-13T22:09:26.989Z,92.10
2018-02-13T22:11:53.518Z,92.10
2018-02-13T22:14:20.006Z,92.30
2018-02-13T22:16:46.682Z,92.50
2018-02-13T22:19:13.059Z,92.50
2018-02-13T22:21:39.693Z,92.50
2018-02-13T22:24:06.465Z,92.60
2018-02-13T22:26:32.920Z,92.40
2018-02-13T22:28:59.380Z,92.60
2018-02-13T22:31:25.859Z,92.60
2018-02-13T22:33:53.021Z,92.50
2018-02-13T22:36:20.205Z,92.80
2018-02-13T22:38:46.956Z,92.70
2018-02-13T22:41:13.353Z,92.60
2018-02-13T22:43:40.573Z,92.60
2018-02-13T22:46:07.288Z,92.50
2018-02-13T22:48:33.732Z,92.70
2018-02-13T22:51:00.903Z,92.60
2018-02-13T22:53:27.341Z,92.60
2018-02-13T22:55:53.744Z,92.70
2018-02-13T22:58:20.168Z,92.60
2018-02-13T23:00:46.936Z,92.60
2018-02-13T23:03:13.329Z,92.20
2018-02-13T23:05:39.760Z,91.90
2018-02-13T23:08:06.223Z,91.70
2018-02-13T23:10:32.669Z,91.80
2018-02-13T23:12:59.113Z,91.80
2018-02-13T23:15:25.985Z,91.90
2018-02-13T23:17:53.147Z,91.90
2018-02-13T23:20:19.697Z,91.90
2018-02-13T23:22:46.131Z,91.90
2018-02-13T23:25:12.565Z,91.90
2018-02-13T23:27:39.076Z,91.80
2018-02-13T23:30:06.284Z,91.90
2018-02-13T23:32:32.661Z,91.90
2018-02-13T23:34:59.819Z,91.90
2018-02-13T23:37:26.255Z,91.90
2018-02-13T23:39:52.683Z,92.00
2018-02-13T23:42:19.905Z,91.90
2018-02-13T23:44:46.483Z,91.90
2018-02-13T23:47:12.908Z,91.90
2018-02-13T23:49:39.300Z,92.00
2018-02-13T23:52:06.129Z,92.10
2018-02-13T23:54:32.615Z,92.10
2018-02-13T23:56:59.222Z,92.20
2018-02-13T23:59:25.728Z,92.10
